Time;durP1;ratioP1;P1;durP2;ratioP2;P2;SDS_P1;SDS_P2;PMS_P1;PMS_P2;Temp;Humidity;BMP_temperature;BMP_pressure;BME280_temperature;BME280_humidity;BME280_pressure;Samples;Min_cycle;Max_cycle;Signal;HPM_P1;HPM_P2
2020/12/26 00:02:22;;;;;;;34.08;15.73;;;;;;;-0.60;100.00;101263.81;18665698;28;20387;-71
2020/12/26 00:11:23;;;;;;;18.60;8.95;;;;;;;-0.80;100.00;101270.56;18666496;28;20068;-71
2020/12/26 00:20:24;;;;;;;22.38;9.25;;;;;;;-0.94;100.00;101272.19;18665746;28;20045;-70
2020/12/26 00:29:25;;;;;;;20.65;10.02;;;;;;;-0.97;100.00;101278.19;18664532;28;20058;-70
2020/12/26 00:38:26;;;;;;;18.70;8.55;;;;;;;-0.92;100.00;101286.78;18672772;28;20045;-70
2020/12/26 00:47:27;;;;;;;29.50;13.15;;;;;;;-0.84;100.00;101291.09;18736684;28;20049;-70
2020/12/26 00:56:28;;;;;;;22.95;10.73;;;;;;;-0.77;100.00;101290.31;18739156;28;20049;-71
2020/12/26 01:05:29;;;;;;;21.85;9.63;;;;;;;-0.81;100.00;101294.53;18748299;28;20077;-71
2020/12/26 01:14:30;;;;;;;23.25;8.30;;;;;;;-0.91;100.00;101308.19;18749962;28;20045;-71
2020/12/26 01:23:31;;;;;;;18.50;8.90;;;;;;;-0.80;100.00;101310.81;18749304;28;20049;-71
2020/12/26 01:32:32;;;;;;;19.83;8.50;;;;;;;-0.79;100.00;101317.69;18746220;28;20417;-72
2020/12/26 01:41:34;;;;;;;22.58;9.35;;;;;;;-0.73;100.00;101322.88;18747902;28;20049;-71
2020/12/26 01:50:35;;;;;;;21.85;8.57;;;;;;;-0.74;100.00;101332.28;18747647;28;20421;-71
2020/12/26 01:59:36;;;;;;;18.50;9.02;;;;;;;-0.71;100.00;101344.31;18746359;28;20136;-71
2020/12/26 02:08:37;;;;;;;17.70;8.88;;;;;;;-0.68;100.00;101358.06;18743538;28;20045;-71
2020/12/26 02:17:38;;;;;;;20.45;8.23;;;;;;;-0.68;100.00;101354.63;18745699;28;20128;-71
2020/12/26 02:26:40;;;;;;;18.70;7.85;;;;;;;-0.74;100.00;101346.84;18674696;28;20053;-71
2020/12/26 02:35:44;;;;;;;16.85;7.70;;;;;;;-0.74;100.00;101350.28;18669919;28;20112;-70
2020/12/26 02:44:45;;;;;;;22.10;9.00;;;;;;;-0.75;100.00;101355.41;18669893;28;20126;-71
2020/12/26 02:53:46;;;;;;;22.42;7.72;;;;;;;-0.87;100.00;101372.47;18669384;28;20096;-71
2020/12/26 03:02:47;;;;;;;21.88;9.52;;;;;;;-0.57;100.00;101386.41;18666318;28;20054;-71
2020/12/26 03:11:48;;;;;;;18.95;9.00;;;;;;;-0.41;100.00;101383.09;18668491;28;20045;-71
2020/12/26 03:20:49;;;;;;;18.17;7.78;;;;;;;-0.35;100.00;101380.53;18667551;28;20452;-71
2020/12/26 03:29:51;;;;;;;16.48;7.93;;;;;;;-0.20;100.00;101378.03;18666973;28;20100;-72
2020/12/26 03:38:52;;;;;;;17.50;8.05;;;;;;;-0.25;100.00;101361.72;18665774;28;20073;-71
2020/12/26 03:47:53;;;;;;;17.70;8.13;;;;;;;-0.39;100.00;101371.06;18666269;28;20054;-71
2020/12/26 03:56:54;;;;;;;18.33;8.75;;;;;;;-0.32;100.00;101372.84;18665312;28;20046;-71
2020/12/26 04:05:54;;;;;;;18.70;9.30;;;;;;;-0.26;100.00;101377.16;18664365;28;20049;-71
2020/12/26 04:14:55;;;;;;;15.73;7.57;;;;;;;-0.32;100.00;101371.97;18664559;28;20115;-71
2020/12/26 04:23:56;;;;;;;24.45;8.48;;;;;;;-0.39;100.00;101385.66;18664572;28;20053;-72
2020/12/26 04:32:57;;;;;;;18.58;8.77;;;;;;;-0.33;100.00;101383.13;18669773;28;20076;-71
2020/12/26 04:41:58;;;;;;;19.25;8.75;;;;;;;-0.34;100.00;101382.25;18678624;28;20533;-71
2020/12/26 04:51:03;;;;;;;22.63;9.98;;;;;;;-0.33;100.00;101380.53;18677931;28;20053;-71
2020/12/26 05:00:05;;;;;;;23.65;9.90;;;;;;;-0.22;100.00;101372.03;18675855;28;20382;-71
2020/12/26 05:09:06;;;;;;;26.27;10.10;;;;;;;-0.21;100.00;101384.06;18676387;28;20046;-71
2020/12/26 05:18:07;;;;;;;23.73;10.00;;;;;;;-0.18;100.00;101388.34;18676073;28;20084;-71
2020/12/26 05:27:08;;;;;;;24.58;9.98;;;;;;;-0.17;100.00;101365.22;18674417;28;20092;-71
2020/12/26 05:36:09;;;;;;;23.00;9.20;;;;;;;-0.14;100.00;101365.22;18674211;28;20394;-71
2020/12/26 05:45:10;;;;;;;22.30;9.43;;;;;;;-0.07;100.00;101369.53;18673144;28;20529;-70
2020/12/26 05:54:12;;;;;;;23.10;10.57;;;;;;;-0.04;100.00;101364.41;18674288;28;20045;-70
2020/12/26 06:03:26;;;;;;;26.60;11.02;;;;;;;-0.15;100.00;101386.63;18672347;28;20465;-71
2020/12/26 06:12:28;;;;;;;25.20;11.77;;;;;;;-0.06;100.00;101386.72;18672359;28;20500;-71
2020/12/26 06:21:29;;;;;;;22.75;11.32;;;;;;;-0.16;100.00;101400.38;18671615;28;20073;-71
2020/12/26 06:30:30;;;;;;;23.50;11.05;;;;;;;-0.07;100.00;101400.41;18670216;28;20053;-71
2020/12/26 06:39:33;;;;;;;28.45;12.68;;;;;;;0.12;100.00;101397.91;18670173;28;20053;-70
2020/12/26 06:48:35;;;;;;;26.87;11.60;;;;;;;0.08;100.00;101415.06;18670395;28;20050;-71
2020/12/26 06:57:37;;;;;;;26.38;13.10;;;;;;;0.10;100.00;101397.06;18669355;28;20440;-71
2020/12/26 07:06:39;;;;;;;26.88;12.68;;;;;;;0.04;100.00;101389.31;18660621;28;20046;-71
2020/12/26 07:15:40;;;;;;;25.27;11.73;;;;;;;0.05;100.00;101367.88;18669024;28;20053;-71
2020/12/26 07:24:46;;;;;;;24.30;12.63;;;;;;;-0.09;100.00;101360.94;18668144;28;20050;-71
2020/12/26 07:33:47;;;;;;;23.45;12.13;;;;;;;-0.15;100.00;101370.34;18667429;28;20532;-71
2020/12/26 07:42:49;;;;;;;29.52;14.52;;;;;;;-0.21;100.00;101381.50;18667112;28;20053;-71
2020/12/26 07:52:07;;;;;;;29.40;13.73;;;;;;;-0.20;100.00;101375.47;18666534;28;20050;-70
2020/12/26 08:01:08;;;;;;;29.13;14.77;;;;;;;-0.10;100.00;101372.09;18665834;28;20042;-70
2020/12/26 08:10:08;;;;;;;27.58;13.57;;;;;;;-0.02;100.00;101378.16;18665454;28;20061;-70
2020/12/26 08:19:10;;;;;;;33.45;14.05;;;;;;;0.09;100.00;101397.91;18683731;28;20057;-71
2020/12/26 08:28:16;;;;;;;26.38;13.18;;;;;;;0.15;100.00;101395.38;18654155;28;20050;-71
2020/12/26 08:37:24;;;;;;;27.63;13.85;;;;;;;0.34;100.00;101400.59;18663314;28;20053;-70
2020/12/26 08:46:25;;;;;;;28.73;14.48;;;;;;;0.38;100.00;101409.19;18654343;28;20045;-70
2020/12/26 08:55:27;;;;;;;28.10;14.13;;;;;;;0.41;100.00;101410.03;18665581;28;20088;-71
2020/12/26 09:04:28;;;;;;;30.70;14.32;;;;;;;0.46;100.00;101433.22;18660662;28;20053;-70
2020/12/26 09:13:34;;;;;;;31.23;15.15;;;;;;;0.63;100.00;101423.84;18661678;28;20073;-70
2020/12/26 09:22:34;;;;;;;32.40;16.70;;;;;;;0.85;100.00;101433.38;18668644;28;20050;-70
2020/12/26 09:31:42;;;;;;;33.60;16.05;;;;;;;0.90;100.00;101437.66;18675667;28;20049;-70
2020/12/26 09:40:43;;;;;;;29.98;14.68;;;;;;;0.82;100.00;101443.66;18674099;28;20149;-70
2020/12/26 09:49:44;;;;;;;25.00;12.98;;;;;;;1.00;100.00;101453.16;18674723;28;20509;-70
2020/12/26 09:58:46;;;;;;;29.77;14.20;;;;;;;1.13;100.00;101449.72;18673798;28;20041;-70
2020/12/26 10:07:47;;;;;;;25.80;13.47;;;;;;;1.25;100.00;101448.88;18670239;28;20050;-70
2020/12/26 10:16:49;;;;;;;27.17;12.63;;;;;;;1.52;98.62;101443.72;18672145;28;20140;-70
2020/12/26 10:25:50;;;;;;;23.95;12.73;;;;;;;1.35;97.96;101449.72;18671659;28;20089;-70
2020/12/26 10:34:51;;;;;;;28.52;12.40;;;;;;;1.49;98.19;101437.69;18665810;28;20520;-70
2020/12/26 10:43:52;;;;;;;25.88;12.98;;;;;;;1.56;96.82;101429.94;18671159;28;20045;-70
2020/12/26 10:52:52;;;;;;;25.63;10.48;;;;;;;1.73;94.56;101410.13;18667448;28;20042;-70
2020/12/26 11:01:53;;;;;;;23.13;10.05;;;;;;;1.65;94.37;101414.44;18657131;28;20249;-70
2020/12/26 11:10:54;;;;;;;20.67;10.68;;;;;;;1.76;93.84;101403.25;18658246;28;20038;-71
2020/12/26 11:19:59;;;;;;;23.00;9.90;;;;;;;1.73;93.80;101397.22;18658563;28;20049;-70
2020/12/26 11:29:00;;;;;;;22.63;9.60;;;;;;;2.01;93.38;101394.56;18656269;28;20563;-70
2020/12/26 11:38:01;;;;;;;15.93;8.88;;;;;;;2.19;92.71;101375.56;18662793;28;20477;-70
2020/12/26 11:47:02;;;;;;;20.05;9.40;;;;;;;2.13;90.65;101359.22;18665099;28;20104;-70
2020/12/26 11:56:11;;;;;;;21.60;9.25;;;;;;;2.51;90.85;101363.34;18658523;28;20062;-71
2020/12/26 12:05:12;;;;;;;23.05;9.27;;;;;;;2.51;88.75;101353.00;18664143;28;20053;-71
2020/12/26 12:14:14;;;;;;;23.98;12.82;;;;;;;2.60;88.31;101347.78;19650106;22;20061;-67
2020/12/26 12:23:15;;;;;;;23.58;11.23;;;;;;;2.48;87.94;101333.22;18540333;28;20498;-68
2020/12/26 12:32:16;;;;;;;19.33;8.43;;;;;;;2.76;87.24;101325.28;18589747;28;20753;-68
2020/12/26 12:41:16;;;;;;;24.95;10.00;;;;;;;3.00;87.22;101322.47;18586917;28;20468;-68
2020/12/26 12:50:17;;;;;;;19.83;9.23;;;;;;;2.83;86.42;101316.59;18591628;28;20042;-67
2020/12/26 12:59:18;;;;;;;21.30;9.48;;;;;;;2.63;86.92;101313.31;18605106;28;20050;-68
2020/12/26 13:08:20;;;;;;;19.67;8.75;;;;;;;2.64;87.55;101313.31;18585988;28;20046;-68
2020/12/26 13:17:20;;;;;;;25.30;10.57;;;;;;;2.70;88.19;101296.88;18648478;28;20591;-67
2020/12/26 13:26:22;;;;;;;26.15;11.85;;;;;;;2.80;87.12;101267.50;18659541;28;20145;-67
2020/12/26 13:35:23;;;;;;;23.73;11.95;;;;;;;2.87;87.97;101276.94;18674869;28;20529;-68
2020/12/26 13:44:24;;;;;;;20.90;10.25;;;;;;;2.70;87.04;101251.22;18668451;28;20045;-67
2020/12/26 13:53:24;;;;;;;25.13;11.30;;;;;;;2.69;87.29;101233.16;18675058;28;20049;-68
2020/12/26 14:02:25;;;;;;;24.58;11.50;;;;;;;2.66;88.01;101238.34;18672977;28;20073;-68
2020/12/26 14:11:27;;;;;;;27.20;12.02;;;;;;;2.72;88.36;101223.63;18666467;28;20559;-68
2020/12/26 14:20:30;;;;;;;24.10;10.32;;;;;;;2.78;86.46;101215.84;18624706;28;20089;-72
2020/12/26 14:29:31;;;;;;;;;;;;;;;2.52;87.62;101208.31;18647139;28;20074;-67
2020/12/26 14:38:32;;;;;;;25.92;10.90;;;;;;;2.50;88.30;101212.63;18617770;28;20412;-67
2020/12/26 14:47:33;;;;;;;33.88;12.32;;;;;;;2.42;89.49;101204.09;18627390;28;20494;-67
2020/12/26 14:56:34;;;;;;;25.75;11.30;;;;;;;2.38;89.87;101201.56;18617182;28;20597;-68
2020/12/26 15:05:35;;;;;;;25.75;11.63;;;;;;;2.30;90.23;101192.97;18609067;28;20042;-67
2020/12/26 15:14:36;;;;;;;32.38;11.57;;;;;;;2.12;91.25;101188.84;18631608;28;20058;-67
2020/12/26 15:23:37;;;;;;;30.27;14.70;;;;;;;2.02;92.16;101172.56;18624858;28;20053;-68
2020/12/26 15:32:39;;;;;;;28.00;12.95;;;;;;;1.93;92.90;101176.91;18610424;28;20576;-67
2020/12/26 15:41:44;;;;;;;28.42;14.02;;;;;;;1.99;93.04;101174.28;18610413;28;20046;-68
2020/12/26 15:50:45;;;;;;;28.15;12.85;;;;;;;1.91;93.38;101158.84;18626763;28;20049;-68
2020/12/26 15:59:45;;;;;;;27.17;12.32;;;;;;;1.80;94.12;101152.91;18627548;28;20085;-67
2020/12/26 16:08:47;;;;;;;29.50;13.55;;;;;;;1.68;95.72;101145.22;18619023;28;20500;-67
2020/12/26 16:17:48;;;;;;;29.90;14.27;;;;;;;1.60;95.68;101145.28;18622764;28;20137;-67
2020/12/26 16:26:49;;;;;;;30.65;13.02;;;;;;;1.47;96.17;101164.28;18615028;28;20046;-67
2020/12/26 16:35:50;;;;;;;26.75;12.80;;;;;;;1.52;96.48;101170.28;18626446;28;20425;-68
2020/12/26 16:44:51;;;;;;;24.58;12.65;;;;;;;1.61;96.24;101152.16;18622773;28;20046;-68
2020/12/26 16:53:52;;;;;;;30.73;14.70;;;;;;;1.57;96.51;101135.00;18623485;28;20054;-68
2020/12/26 17:02:53;;;;;;;33.83;14.05;;;;;;;1.55;96.52;101126.41;18613472;28;20081;-68
2020/12/26 17:11:54;;;;;;;27.25;13.35;;;;;;;1.48;97.15;101116.97;18602858;28;21350;-68
2020/12/26 17:20:55;;;;;;;33.40;15.93;;;;;;;1.55;96.12;101112.63;18606053;28;20054;-68
2020/12/26 17:29:56;;;;;;;30.40;13.93;;;;;;;1.47;97.00;101094.63;18599779;28;20425;-68
2020/12/26 17:38:57;;;;;;;31.65;13.77;;;;;;;1.51;97.63;101075.69;18589348;28;20050;-68
2020/12/26 17:47:58;;;;;;;30.90;14.43;;;;;;;1.40;97.76;101066.31;18603705;28;20076;-68
2020/12/26 17:56:59;;;;;;;27.75;14.20;;;;;;;1.37;99.06;101041.41;18621705;28;20046;-68
2020/12/26 18:06:01;;;;;;;27.40;13.43;;;;;;;1.28;98.88;101046.59;18599445;28;20101;-68
2020/12/26 18:15:03;;;;;;;29.50;14.25;;;;;;;1.27;99.13;101024.25;18593404;28;20089;-68
2020/12/26 18:24:03;;;;;;;35.55;17.63;;;;;;;1.33;99.25;101005.31;18614620;28;20070;-68
2020/12/26 18:33:05;;;;;;;33.53;16.80;;;;;;;1.39;97.52;101000.09;18598481;28;20521;-68
2020/12/26 18:42:06;;;;;;;29.60;14.80;;;;;;;1.41;96.79;100988.94;18598039;28;20052;-68
2020/12/26 18:51:12;;;;;;;25.30;12.13;;;;;;;1.44;95.72;100954.50;18590548;28;20070;-68
2020/12/26 19:00:13;;;;;;;22.65;10.98;;;;;;;1.39;95.67;100935.63;18595722;28;20133;-68
2020/12/26 19:09:14;;;;;;;20.13;9.98;;;;;;;1.39;94.50;100920.16;18607502;28;20129;-68
2020/12/26 19:18:14;;;;;;;19.73;9.95;;;;;;;1.31;94.49;100920.25;18608482;28;20086;-68
2020/12/26 19:27:16;;;;;;;21.23;10.60;;;;;;;1.24;94.54;100926.31;18600322;28;20050;-68
2020/12/26 19:36:20;;;;;;;22.67;11.10;;;;;;;1.13;94.48;100897.16;18591275;28;20089;-68
2020/12/26 19:45:21;;;;;;;20.08;11.85;;;;;;;0.87;95.03;100884.47;18599842;28;20129;-68
2020/12/26 19:54:22;;;;;;;23.80;12.23;;;;;;;0.65;96.04;100868.34;18609987;28;20101;-68
2020/12/26 20:03:23;;;;;;;26.38;13.85;;;;;;;0.58;95.60;100858.06;18621657;28;20050;-68
2020/12/26 20:12:31;;;;;;;22.60;11.75;;;;;;;0.49;95.96;100852.97;18615670;28;20054;-68
2020/12/26 20:21:32;;;;;;;22.95;13.00;;;;;;;0.34;96.56;100848.78;18598464;28;20042;-68
2020/12/26 20:30:33;;;;;;;35.10;15.32;;;;;;;0.22;96.55;100838.53;18607825;28;20073;-70
2020/12/26 20:39:34;;;;;;;19.73;10.05;;;;;;;0.12;97.20;100836.88;18610365;28;20070;-70
2020/12/26 20:48:35;;;;;;;20.40;9.80;;;;;;;-0.03;98.33;100828.34;18620971;28;20053;-70
2020/12/26 20:57:36;;;;;;;22.42;10.73;;;;;;;-0.12;98.59;100812.13;18611655;28;20556;-70
2020/12/26 21:06:37;;;;;;;21.23;10.50;;;;;;;-0.23;98.22;100807.00;18613942;28;20108;-70
2020/12/26 21:15:38;;;;;;;23.35;10.25;;;;;;;-0.24;97.44;100795.00;18621173;28;20570;-70
2020/12/26 21:24:39;;;;;;;22.60;10.93;;;;;;;-0.29;97.64;100780.44;18614873;28;20070;-71
2020/12/26 21:33:40;;;;;;;22.98;11.40;;;;;;;-0.41;99.16;100744.53;18627490;28;20057;-71
2020/12/26 21:42:41;;;;;;;23.00;10.88;;;;;;;-0.49;100.00;100729.09;18619418;28;20519;-71
2020/12/26 21:51:46;;;;;;;23.83;11.68;;;;;;;-0.60;100.00;100718.00;18638430;28;20042;-70
2020/12/26 22:00:52;;;;;;;22.05;11.52;;;;;;;-0.71;100.00;100700.06;18643146;28;20045;-71
2020/12/26 22:09:53;;;;;;;24.80;12.73;;;;;;;-0.72;100.00;100676.97;18639165;28;20073;-71
2020/12/26 22:18:54;;;;;;;28.40;13.25;;;;;;;-0.78;100.00;100651.28;18633255;28;20644;-71
2020/12/26 22:27:55;;;;;;;26.05;12.30;;;;;;;-0.80;100.00;100653.00;18630450;28;20084;-72
2020/12/26 22:36:56;;;;;;;24.67;12.05;;;;;;;-0.87;100.00;100629.06;18629375;28;20042;-72
2020/12/26 22:45:57;;;;;;;24.15;12.00;;;;;;;-0.84;100.00;100620.47;18632973;28;20046;-72
2020/12/26 22:54:58;;;;;;;23.35;11.68;;;;;;;-1.00;100.00;100605.13;18625410;28;20046;-72
2020/12/26 23:04:02;;;;;;;26.45;12.57;;;;;;;-1.07;100.00;100580.34;18628871;28;20355;-71
2020/12/26 23:13:04;;;;;;;26.08;12.23;;;;;;;-1.14;100.00;100552.09;18603844;28;20057;-72
2020/12/26 23:22:04;;;;;;;29.80;13.05;;;;;;;-1.22;100.00;100533.31;18612271;28;20513;-72
2020/12/26 23:31:05;;;;;;;31.50;12.48;;;;;;;-1.27;100.00;100499.97;18617665;28;20042;-72
2020/12/26 23:40:07;;;;;;;29.20;13.45;;;;;;;-1.30;100.00;100466.59;18629957;28;20054;-72
2020/12/26 23:49:08;;;;;;;25.00;11.70;;;;;;;-1.33;100.00;100446.09;18629922;28;20034;-72
2020/12/26 23:58:09;;;;;;;25.30;13.05;;;;;;;-1.29;100.00;100445.19;18635616;28;20543;-71
